Time;durP1;ratioP1;P1;durP2;ratioP2;P2;SDS_P1;SDS_P2;PMS_P1;PMS_P2;Temp;Humidity;BMP_temperature;BMP_pressure;BME280_temperature;BME280_humidity;BME280_pressure;Samples;Min_cycle;Max_cycle;Signal;HPM_P1;HPM_P2
2022/06/14 00:00:53;;;;;;;7.28;2.35;;;16.10;58.50;;;;;;5051384;28;20068;-74
2022/06/14 00:03:41;;;;;;;6.70;2.08;;;16.10;58.60;;;;;;5030649;28;20025;-74
2022/06/14 00:06:09;;;;;;;8.25;2.45;;;16.10;58.70;;;;;;5048143;28;20428;-74
2022/06/14 00:08:37;;;;;;;7.38;2.10;;;16.00;58.70;;;;;;5047549;28;20026;-74
2022/06/14 00:11:14;;;;;;;7.10;2.00;;;16.00;58.80;;;;;;5049004;28;20025;-74
2022/06/14 00:13:41;;;;;;;5.80;2.17;;;16.00;58.90;;;;;;5046286;28;20355;-75
2022/06/14 00:16:07;;;;;;;7.95;2.45;;;16.00;59.00;;;;;;5044343;28;20029;-75
2022/06/14 00:18:33;;;;;;;6.45;2.38;;;16.00;59.00;;;;;;5024341;28;20036;-75
2022/06/14 00:20:59;;;;;;;5.55;2.10;;;15.90;59.10;;;;;;5048977;28;20029;-76
2022/06/14 00:23:25;;;;;;;6.70;2.08;;;15.90;59.20;;;;;;5042140;28;20028;-76
2022/06/14 00:25:53;;;;;;;6.68;1.95;;;15.90;59.20;;;;;;5047827;28;20017;-75
2022/06/14 00:28:20;;;;;;;5.65;2.33;;;15.90;59.30;;;;;;5039444;28;20118;-76
2022/06/14 00:30:49;;;;;;;6.20;2.13;;;15.80;59.40;;;;;;5052905;28;20381;-75
2022/06/14 00:33:16;;;;;;;7.40;2.22;;;15.80;59.40;;;;;;5037007;28;20131;-75
2022/06/14 00:35:42;;;;;;;8.35;2.00;;;15.80;59.40;;;;;;5041827;28;20025;-75
2022/06/14 00:38:10;;;;;;;6.60;2.30;;;15.80;59.40;;;;;;5040669;28;20022;-75
2022/06/14 00:40:37;;;;;;;8.40;2.30;;;15.70;59.40;;;;;;5035372;28;20040;-76
2022/06/14 00:43:11;;;;;;;6.95;2.22;;;15.70;59.50;;;;;;5049159;28;20029;-75
2022/06/14 00:45:37;;;;;;;6.28;2.05;;;15.70;59.50;;;;;;5038546;28;20064;-75
2022/06/14 00:48:18;;;;;;;7.32;2.42;;;15.70;59.50;;;;;;5019111;28;20056;-75
2022/06/14 00:50:56;;;;;;;7.78;2.10;;;15.60;59.40;;;;;;5019160;28;20029;-75
2022/06/14 00:53:30;;;;;;;10.80;2.10;;;15.60;59.60;;;;;;5037073;28;20041;-74
2022/06/14 00:56:05;;;;;;;6.95;1.98;;;15.60;59.60;;;;;;5049046;28;20241;-74
2022/06/14 00:58:34;;;;;;;8.93;2.45;;;15.60;59.70;;;;;;5036927;28;20036;-75
2022/06/14 01:01:10;;;;;;;8.40;2.47;;;15.60;59.70;;;;;;5048935;28;20020;-75
2022/06/14 01:03:47;;;;;;;7.95;2.42;;;15.60;59.70;;;;;;5046392;28;20052;-75
2022/06/14 01:06:20;;;;;;;10.05;2.60;;;15.60;59.80;;;;;;5023360;28;20028;-75
2022/06/14 01:08:48;;;;;;;8.55;2.92;;;15.60;59.90;;;;;;5045097;28;20453;-75
2022/06/14 01:11:24;;;;;;;6.95;2.28;;;15.60;59.90;;;;;;5053741;28;20506;-75
2022/06/14 01:13:50;;;;;;;8.02;2.75;;;15.60;60.10;;;;;;5036201;28;20057;-75
2022/06/14 01:16:15;;;;;;;5.43;2.22;;;15.60;60.10;;;;;;5041822;28;20041;-75
2022/06/14 01:18:41;;;;;;;7.63;2.38;;;15.50;60.20;;;;;;5018618;28;20516;-75
2022/06/14 01:21:07;;;;;;;6.10;2.05;;;15.50;60.30;;;;;;5040279;28;20116;-75
2022/06/14 01:23:33;;;;;;;10.73;2.22;;;15.50;60.50;;;;;;5026252;28;20351;-75
2022/06/14 01:26:20;;;;;;;7.60;2.25;;;15.50;60.60;;;;;;5042774;28;20079;-75
2022/06/14 01:28:53;;;;;;;7.20;2.10;;;15.50;60.60;;;;;;5017023;28;20041;-75
2022/06/14 01:31:20;;;;;;;8.45;2.40;;;15.50;60.70;;;;;;5033479;28;20052;-75
2022/06/14 01:33:51;;;;;;;7.97;2.25;;;15.50;60.70;;;;;;5026976;28;20560;-75
2022/06/14 01:36:43;;;;;;;9.13;2.38;;;15.50;61.00;;;;;;5045468;28;20033;-75
2022/06/14 01:39:14;;;;;;;6.18;2.05;;;15.50;60.90;;;;;;5040256;28;20040;-75
2022/06/14 01:42:06;;;;;;;9.77;2.77;;;15.40;61.00;;;;;;5022660;28;20029;-75
2022/06/14 01:45:15;;;;;;;7.18;2.45;;;15.40;61.00;;;;;;5028964;28;20614;-75
2022/06/14 01:48:02;;;;;;;8.45;2.35;;;15.40;61.10;;;;;;5028042;28;20029;-77
2022/06/14 01:53:37;;;;;;;9.18;2.13;;;15.40;61.20;;;;;;5008155;28;20030;-74
2022/06/14 01:56:18;;;;;;;7.35;2.25;;;15.40;61.30;;;;;;5011340;28;20096;-74
2022/06/14 01:58:43;;;;;;;8.75;2.47;;;15.30;61.30;;;;;;5012361;28;20037;-76
2022/06/14 02:01:14;;;;;;;8.50;2.17;;;15.30;61.40;;;;;;5031423;28;20112;-75
2022/06/14 02:06:42;;;;;;;8.32;2.33;;;15.30;61.50;;;;;;5011372;28;20113;-76
2022/06/14 02:09:12;;;;;;;8.85;2.30;;;15.30;61.60;;;;;;5017940;28;20057;-76
2022/06/14 02:11:38;;;;;;;7.47;2.53;;;15.30;61.70;;;;;;5024897;28;20447;-74
2022/06/14 02:14:39;;;;;;;6.82;1.83;;;15.30;61.70;;;;;;5015717;28;20045;-76
2022/06/14 02:17:13;;;;;;;9.38;2.30;;;15.30;61.80;;;;;;5019004;28;20192;-75
2022/06/14 02:19:48;;;;;;;10.00;2.58;;;15.20;61.80;;;;;;5021712;28;20360;-75
2022/06/14 02:22:31;;;;;;;7.53;2.08;;;15.20;62.00;;;;;;5049215;28;20089;-75
2022/06/14 02:25:04;;;;;;;8.23;2.08;;;15.20;61.90;;;;;;5044106;28;20079;-75
2022/06/14 02:27:41;;;;;;;7.97;2.25;;;15.20;62.00;;;;;;5047505;28;20020;-76
2022/06/14 02:30:16;;;;;;;9.85;2.40;;;15.20;62.00;;;;;;5046663;28;20132;-75
2022/06/14 02:33:06;;;;;;;9.45;2.30;;;15.20;62.10;;;;;;5052730;28;20494;-75
2022/06/14 02:35:40;;;;;;;6.95;2.20;;;15.10;62.10;;;;;;5041917;28;20025;-75
2022/06/14 02:38:41;;;;;;;8.90;2.55;;;15.10;62.10;;;;;;5041037;28;20034;-75
2022/06/14 02:41:16;;;;;;;9.35;2.60;;;15.10;62.10;;;;;;5050307;28;20029;-76
2022/06/14 02:44:09;;;;;;;9.77;2.20;;;15.10;62.20;;;;;;5045059;28;20025;-76
2022/06/14 02:46:53;;;;;;;9.45;2.50;;;15.10;62.30;;;;;;5016396;28;20029;-75
2022/06/14 02:49:37;;;;;;;6.70;2.10;;;15.10;62.40;;;;;;5047146;28;20112;-76
2022/06/14 02:52:24;;;;;;;9.20;2.80;;;15.00;62.40;;;;;;5050214;28;20518;-75
2022/06/14 02:55:02;;;;;;;7.65;2.38;;;15.00;62.50;;;;;;5054373;28;20029;-76
2022/06/14 02:57:32;;;;;;;8.10;2.00;;;15.00;62.60;;;;;;5041539;28;20032;-76
2022/06/14 03:00:07;;;;;;;7.90;2.20;;;15.00;62.80;;;;;;5041260;28;20442;-75
2022/06/14 03:02:55;;;;;;;6.50;2.10;;;15.00;62.80;;;;;;5043535;28;20029;-75
2022/06/14 03:05:29;;;;;;;8.60;2.63;;;14.90;62.90;;;;;;5053104;28;20094;-75
2022/06/14 03:07:58;;;;;;;5.47;2.08;;;14.90;63.00;;;;;;5047113;28;20033;-74
2022/06/14 03:10:39;;;;;;;8.23;2.42;;;14.80;63.10;;;;;;5036774;28;20083;-74
2022/06/14 03:13:11;;;;;;;8.73;2.13;;;14.80;63.60;;;;;;5049751;28;20124;-74
2022/06/14 03:15:52;;;;;;;9.40;2.33;;;14.80;63.40;;;;;;5050038;28;20052;-75
2022/06/14 03:18:40;;;;;;;8.40;2.25;;;14.80;63.50;;;;;;5043142;28;20136;-74
2022/06/14 03:21:25;;;;;;;7.95;2.20;;;14.70;63.60;;;;;;5038376;28;20450;-75
2022/06/14 03:24:12;;;;;;;7.38;2.05;;;14.70;63.60;;;;;;5046172;28;20046;-74
2022/06/14 03:26:47;;;;;;;7.15;2.38;;;14.70;63.70;;;;;;5041390;28;20029;-75
2022/06/14 03:29:24;;;;;;;7.53;2.13;;;14.70;63.80;;;;;;5043577;28;20017;-80
2022/06/14 03:32:09;;;;;;;5.43;1.65;;;14.70;63.90;;;;;;5024692;28;20033;-75
2022/06/14 03:34:49;;;;;;;8.27;2.47;;;14.70;64.00;;;;;;5052998;28;20040;-73
2022/06/14 03:37:16;;;;;;;5.45;2.20;;;14.60;64.00;;;;;;5045578;28;20037;-73
2022/06/14 03:39:48;;;;;;;6.40;2.20;;;14.60;64.10;;;;;;5028963;28;20028;-74
2022/06/14 03:42:14;;;;;;;7.97;2.30;;;14.60;64.10;;;;;;5048971;28;20029;-74
2022/06/14 03:44:41;;;;;;;8.27;2.28;;;14.60;64.20;;;;;;5042053;28;20465;-74
2022/06/14 03:47:10;;;;;;;9.20;2.38;;;14.60;64.30;;;;;;5047094;28;20461;-74
2022/06/14 03:49:56;;;;;;;11.07;2.40;;;14.60;64.40;;;;;;5041634;28;20021;-74
2022/06/14 03:52:45;;;;;;;6.70;2.00;;;14.60;64.50;;;;;;5043439;28;20112;-73
2022/06/14 03:55:30;;;;;;;6.78;1.88;;;14.60;64.50;;;;;;5053273;28;20029;-74
2022/06/14 03:58:12;;;;;;;7.53;2.30;;;14.60;64.50;;;;;;5040392;28;20033;-74
2022/06/14 04:00:57;;;;;;;9.95;2.10;;;14.50;64.60;;;;;;5053371;28;20040;-73
2022/06/14 04:03:52;;;;;;;7.40;2.15;;;14.60;65.30;;;;;;5050842;28;20426;-72
2022/06/14 04:07:00;;;;;;;7.95;1.98;;;14.50;64.70;;;;;;5043248;28;20033;-72
2022/06/14 04:09:58;;;;;;;7.78;2.20;;;14.50;64.80;;;;;;5050045;28;20110;-73
2022/06/14 04:12:46;;;;;;;8.85;2.25;;;14.60;65.00;;;;;;5025324;28;20108;-74
2022/06/14 04:15:20;;;;;;;6.05;2.20;;;14.60;65.00;;;;;;5038578;28;20120;-74
2022/06/14 04:18:01;;;;;;;7.50;2.10;;;14.60;65.10;;;;;;5040010;28;20351;-74
2022/06/14 04:20:41;;;;;;;7.57;2.13;;;14.60;65.20;;;;;;5037688;28;20041;-74
2022/06/14 04:23:32;;;;;;;5.57;1.83;;;14.60;65.20;;;;;;5035402;28;20116;-75
2022/06/14 04:26:05;;;;;;;7.53;2.00;;;14.60;65.20;;;;;;5037174;28;20040;-74
2022/06/14 04:29:09;;;;;;;6.75;2.20;;;14.60;65.20;;;;;;5033790;28;20429;-74
2022/06/14 04:31:41;;;;;;;8.52;2.10;;;14.70;65.20;;;;;;5029467;28;20037;-75
2022/06/14 04:34:14;;;;;;;7.47;2.17;;;14.70;65.20;;;;;;4998950;28;20486;-74
2022/06/14 04:37:13;;;;;;;6.28;2.30;;;14.70;65.40;;;;;;5026801;28;20509;-74
2022/06/14 04:39:52;;;;;;;6.47;2.10;;;14.70;65.30;;;;;;5011459;28;20029;-73
2022/06/14 04:42:30;;;;;;;6.60;1.92;;;14.80;65.40;;;;;;5030269;28;20088;-73
2022/06/14 04:45:09;;;;;;;7.03;2.42;;;14.80;65.50;;;;;;5007668;28;20041;-74
2022/06/14 04:47:50;;;;;;;7.30;2.67;;;14.80;65.40;;;;;;5031201;28;20061;-74
2022/06/14 04:50:24;;;;;;;6.57;2.30;;;14.90;65.40;;;;;;5030723;28;20044;-74
2022/06/14 04:52:55;;;;;;;6.50;2.08;;;14.90;65.40;;;;;;5032545;28;20091;-72
2022/06/14 04:55:28;;;;;;;8.68;2.03;;;15.00;66.00;;;;;;5013553;28;20041;-74
2022/06/14 04:58:00;;;;;;;5.03;1.88;;;15.00;65.40;;;;;;5033320;28;20040;-73
2022/06/14 05:00:28;;;;;;;;;;;15.00;65.30;;;;;;5015398;28;20107;-73
2022/06/14 05:03:04;;;;;;;7.63;2.22;;;15.10;65.20;;;;;;5031384;28;20345;-74
2022/06/14 05:05:39;;;;;;;7.25;2.22;;;15.10;65.10;;;;;;5026414;28;20116;-73
2022/06/14 05:08:11;;;;;;;9.82;2.55;;;15.20;65.00;;;;;;5052641;28;20428;-73
2022/06/14 05:10:46;;;;;;;7.75;2.08;;;15.30;64.90;;;;;;5028630;28;20030;-73
2022/06/14 05:13:44;;;;;;;9.15;2.20;;;15.80;64.30;;;;;;5047689;28;20052;-73
2022/06/14 05:16:26;;;;;;;5.32;1.90;;;16.40;63.00;;;;;;5037304;28;20032;-73
2022/06/14 05:19:17;;;;;;;8.63;2.67;;;16.60;62.20;;;;;;5054861;28;20040;-73
2022/06/14 05:21:50;;;;;;;7.22;2.45;;;16.70;62.00;;;;;;5053081;28;20083;-73
2022/06/14 05:24:17;;;;;;;8.55;2.17;;;16.70;62.00;;;;;;5053475;28;20115;-73
2022/06/14 05:27:06;;;;;;;7.88;1.95;;;16.70;62.10;;;;;;5042774;28;20029;-74
2022/06/14 05:29:37;;;;;;;7.15;1.85;;;16.70;61.80;;;;;;5053664;28;20062;-74
2022/06/14 05:32:32;;;;;;;7.82;2.03;;;16.70;61.70;;;;;;5050563;28;20075;-74
2022/06/14 05:35:01;;;;;;;7.70;2.00;;;16.70;61.50;;;;;;5024838;28;20045;-75
2022/06/14 05:37:34;;;;;;;9.27;2.05;;;16.80;61.50;;;;;;5050456;28;20021;-74
2022/06/14 05:40:29;;;;;;;6.00;1.45;;;16.80;61.20;;;;;;5054948;28;20025;-74
2022/06/14 05:43:04;;;;;;;8.77;1.90;;;16.90;60.80;;;;;;5028006;28;20055;-74
2022/06/14 05:45:33;;;;;;;8.73;2.13;;;17.00;60.60;;;;;;5046007;28;20041;-74
2022/06/14 05:48:04;;;;;;;5.70;1.63;;;17.10;60.30;;;;;;5038417;28;20036;-74
2022/06/14 05:50:42;;;;;;;6.43;1.67;;;17.20;59.90;;;;;;5046903;28;20454;-74
2022/06/14 05:53:35;;;;;;;5.38;2.15;;;17.20;59.60;;;;;;5041939;28;20029;-74
2022/06/14 05:56:15;;;;;;;5.38;1.85;;;17.30;59.30;;;;;;5051581;28;20029;-73
2022/06/14 05:58:55;;;;;;;6.72;1.98;;;17.30;59.10;;;;;;5052738;28;20497;-78
2022/06/14 06:01:32;;;;;;;7.57;2.17;;;17.40;58.90;;;;;;5052028;28;20025;-75
2022/06/14 06:04:08;;;;;;;7.65;2.10;;;17.50;58.80;;;;;;5036696;28;20025;-74
2022/06/14 06:06:54;;;;;;;8.75;2.35;;;17.60;58.60;;;;;;5047656;28;20021;-74
2022/06/14 06:09:30;;;;;;;7.55;1.85;;;17.80;58.20;;;;;;5045484;28;20426;-74
2022/06/14 06:12:06;;;;;;;4.88;1.60;;;17.80;57.90;;;;;;5043649;28;20048;-74
2022/06/14 06:14:40;;;;;;;7.50;2.03;;;17.90;57.70;;;;;;5039148;28;20036;-74
2022/06/14 06:17:11;;;;;;;7.63;2.03;;;18.00;57.40;;;;;;5048453;28;20030;-74
2022/06/14 06:19:54;;;;;;;9.07;2.35;;;18.10;57.30;;;;;;5047901;28;20163;-74
2022/06/14 06:22:32;;;;;;;6.22;1.58;;;18.20;56.90;;;;;;5049789;28;20025;-73
2022/06/14 06:25:04;;;;;;;6.03;1.70;;;18.30;56.30;;;;;;5051987;28;20039;-73
2022/06/14 06:27:48;;;;;;;6.28;1.60;;;18.50;56.30;;;;;;5050111;28;20025;-74
2022/06/14 06:30:41;;;;;;;7.00;2.08;;;18.50;55.90;;;;;;5048979;28;20025;-73
2022/06/14 06:33:10;;;;;;;5.75;1.60;;;18.70;55.70;;;;;;5051273;28;20083;-74
2022/06/14 06:35:50;;;;;;;8.20;1.60;;;18.80;55.30;;;;;;5053933;28;20053;-74
2022/06/14 06:38:36;;;;;;;5.03;1.50;;;19.00;54.80;;;;;;5052459;28;20029;-74
2022/06/14 06:44:32;;;;;;;6.32;1.70;;;19.10;53.70;;;;;;5039905;28;20349;-74
2022/06/14 06:47:13;;;;;;;4.47;1.48;;;19.20;53.70;;;;;;5045552;28;20132;-74
2022/06/14 06:50:01;;;;;;;8.05;1.80;;;19.30;53.30;;;;;;5056970;28;20461;-74
2022/06/14 06:52:41;;;;;;;8.00;1.75;;;19.50;52.90;;;;;;5056463;28;20044;-74
2022/06/14 06:55:12;;;;;;;3.42;1.48;;;19.60;52.50;;;;;;5051852;28;20021;-74
2022/06/14 06:57:40;;;;;;;8.57;1.80;;;19.70;52.20;;;;;;5046059;28;20481;-74
2022/06/14 07:00:07;;;;;;;5.20;1.50;;;19.70;51.70;;;;;;5033577;28;20621;-76
2022/06/14 07:02:41;;;;;;;5.80;1.50;;;19.80;51.50;;;;;;5033713;28;20138;-75
2022/06/14 07:05:14;;;;;;;4.28;1.33;;;19.80;51.20;;;;;;5050555;28;20033;-74
2022/06/14 07:07:48;;;;;;;3.80;1.20;;;19.90;51.00;;;;;;5050359;28;20339;-74
2022/06/14 07:10:38;;;;;;;4.47;1.38;;;20.10;50.90;;;;;;5044108;28;20029;-74
2022/06/14 07:13:10;;;;;;;4.57;1.10;;;20.30;50.40;;;;;;5053943;28;20126;-75
2022/06/14 07:16:02;;;;;;;6.70;1.70;;;20.50;50.00;;;;;;5044256;28;20130;-74
2022/06/14 07:18:32;;;;;;;3.97;1.50;;;20.70;49.70;;;;;;5044646;28;20041;-74
2022/06/14 07:21:11;;;;;;;6.30;1.80;;;20.80;49.60;;;;;;5053833;28;20565;-75
2022/06/14 07:23:44;;;;;;;8.27;1.88;;;20.80;49.30;;;;;;5042802;28;20474;-74
2022/06/14 07:26:36;;;;;;;4.50;1.60;;;21.00;49.30;;;;;;5044304;28;20026;-74
2022/06/14 07:29:27;;;;;;;5.47;1.17;;;21.10;48.90;;;;;;5057507;28;20028;-75
2022/06/14 07:32:06;;;;;;;3.58;1.23;;;20.90;48.50;;;;;;5039573;28;20328;-75
2022/06/14 07:34:33;;;;;;;6.35;1.35;;;20.60;48.70;;;;;;5048378;28;20033;-74
2022/06/14 07:37:34;;;;;;;6.95;1.42;;;20.30;49.50;;;;;;5041826;28;20082;-74
2022/06/14 07:40:14;;;;;;;10.52;1.88;;;20.40;49.30;;;;;;5046333;28;20401;-74
2022/06/14 07:42:52;;;;;;;5.40;1.40;;;20.70;49.10;;;;;;5039486;28;20053;-73
2022/06/14 07:45:38;;;;;;;8.10;1.80;;;20.80;49.00;;;;;;5048296;28;20094;-74
2022/06/14 07:48:08;;;;;;;7.88;1.80;;;20.70;48.70;;;;;;5040274;28;20347;-75
2022/06/14 07:50:44;;;;;;;8.90;1.70;;;20.50;48.90;;;;;;5047874;28;20357;-74
2022/06/14 07:53:28;;;;;;;5.78;1.60;;;20.40;49.00;;;;;;5043437;28;20032;-75
2022/06/14 07:56:05;;;;;;;4.88;1.70;;;20.60;48.80;;;;;;5048968;28;20036;-73
2022/06/14 07:58:54;;;;;;;7.07;1.60;;;21.00;48.10;;;;;;5038539;28;20048;-74
2022/06/14 08:01:28;;;;;;;6.35;1.20;;;21.30;47.70;;;;;;5047517;28;20032;-76
2022/06/14 08:04:16;;;;;;;3.08;1.17;;;21.80;47.10;;;;;;5035244;28;20333;-75
2022/06/14 08:07:01;;;;;;;4.30;1.60;;;22.20;46.30;;;;;;5035710;28;20029;-76
2022/06/14 08:09:32;;;;;;;4.90;1.58;;;22.60;45.70;;;;;;5050137;28;20044;-73
2022/06/14 08:12:00;;;;;;;8.13;2.17;;;22.40;45.90;;;;;;5052101;28;20052;-77
2022/06/14 08:14:52;;;;;;;4.15;1.50;;;22.20;46.90;;;;;;5037993;28;20434;-74
2022/06/14 08:17:36;;;;;;;6.53;1.38;;;21.90;46.40;;;;;;5026691;28;20086;-75
2022/06/14 08:20:26;;;;;;;8.95;1.30;;;21.80;46.70;;;;;;5054925;28;20475;-76
2022/06/14 08:22:58;;;;;;;2.53;1.20;;;21.50;47.20;;;;;;5054027;28;20037;-76
2022/06/14 08:25:36;;;;;;;7.57;1.52;;;21.40;47.30;;;;;;5041801;28;20035;-76
2022/06/14 08:28:07;;;;;;;6.95;1.80;;;21.20;47.90;;;;;;5047005;28;20095;-76
2022/06/14 08:30:58;;;;;;;4.95;1.25;;;21.10;47.50;;;;;;5048807;28;20025;-76
2022/06/14 08:33:44;;;;;;;3.25;1.15;;;20.90;47.40;;;;;;5043743;28;20079;-76
2022/06/14 08:36:16;;;;;;;4.90;1.60;;;20.80;47.80;;;;;;5044720;28;20098;-75
2022/06/14 08:38:51;;;;;;;4.43;1.13;;;20.70;47.90;;;;;;5041163;28;20025;-75
2022/06/14 08:41:52;;;;;;;6.53;1.60;;;20.60;48.10;;;;;;5038271;28;20067;-75
2022/06/14 08:44:25;;;;;;;5.88;1.70;;;20.50;48.30;;;;;;5043334;28;20021;-75
2022/06/14 08:47:06;;;;;;;4.13;1.38;;;20.40;48.50;;;;;;5054367;28;20029;-75
2022/06/14 08:49:52;;;;;;;4.22;1.20;;;20.70;47.70;;;;;;5054393;28;20029;-75
2022/06/14 08:53:08;;;;;;;6.03;1.60;;;21.30;47.00;;;;;;5055273;28;20036;-75
2022/06/14 08:55:55;;;;;;;3.90;1.25;;;22.00;46.30;;;;;;5027663;28;20163;-76
2022/06/14 08:59:01;;;;;;;3.90;1.48;;;22.20;45.90;;;;;;5042131;28;20021;-77
2022/06/14 09:01:39;;;;;;;3.65;1.20;;;22.20;45.60;;;;;;5036319;28;20040;-78
2022/06/14 09:04:34;;;;;;;4.07;1.60;;;22.00;45.50;;;;;;5034048;28;20490;-75
2022/06/14 09:07:08;;;;;;;4.53;1.60;;;21.90;45.40;;;;;;5020424;28;20025;-76
2022/06/14 09:09:34;;;;;;;5.60;1.40;;;22.00;45.20;;;;;;5043514;28;20441;-75
2022/06/14 09:12:07;;;;;;;4.28;1.45;;;22.30;45.00;;;;;;5037378;28;20120;-75
2022/06/14 09:14:48;;;;;;;4.57;1.45;;;22.70;44.40;;;;;;5034662;28;20029;-74
2022/06/14 09:17:29;;;;;;;4.10;1.33;;;23.00;43.90;;;;;;5038104;28;20033;-75
2022/06/14 09:20:06;;;;;;;7.97;2.22;;;23.10;43.70;;;;;;5035324;28;20037;-74
2022/06/14 09:23:02;;;;;;;3.38;1.23;;;23.00;43.80;;;;;;5028106;28;20429;-71
2022/06/14 09:25:54;;;;;;;5.07;1.60;;;22.60;44.30;;;;;;5042992;28;20116;-72
2022/06/14 09:28:41;;;;;;;5.28;1.40;;;22.10;44.70;;;;;;5046053;28;20528;-72
2022/06/14 09:31:30;;;;;;;6.18;1.42;;;21.70;45.40;;;;;;5052712;28;20094;-72
2022/06/14 09:34:36;;;;;;;7.68;1.83;;;21.40;45.90;;;;;;5033074;28;20032;-73
2022/06/14 09:37:41;;;;;;;3.60;1.30;;;21.10;46.30;;;;;;5049244;28;21183;-73
2022/06/14 09:40:25;;;;;;;5.57;1.70;;;20.90;46.70;;;;;;5036147;28;20051;-73
2022/06/14 09:43:21;;;;;;;4.25;1.33;;;20.80;47.00;;;;;;5044092;28;20091;-73
2022/06/14 09:45:58;;;;;;;4.80;1.35;;;20.80;47.30;;;;;;5038980;28;20033;-73
2022/06/14 09:48:29;;;;;;;6.00;1.58;;;20.80;47.80;;;;;;5033023;28;20037;-74
2022/06/14 09:51:43;;;;;;;3.63;1.30;;;20.70;47.70;;;;;;5039921;28;20072;-74
2022/06/14 09:54:16;;;;;;;4.43;1.50;;;20.60;47.40;;;;;;5043315;28;20032;-74
2022/06/14 09:56:42;;;;;;;7.32;1.60;;;20.60;47.70;;;;;;5052645;28;20052;-74
2022/06/14 09:59:13;;;;;;;4.05;1.33;;;21.10;47.10;;;;;;5041605;28;20025;-74
2022/06/14 10:02:00;;;;;;;4.30;1.30;;;21.50;46.50;;;;;;5039581;28;20121;-73
2022/06/14 10:04:35;;;;;;;15.30;3.05;;;21.60;46.00;;;;;;5041044;28;20072;-74
2022/06/14 10:07:04;;;;;;;13.07;2.83;;;22.00;45.40;;;;;;5039646;28;20025;-74
2022/06/14 10:09:52;;;;;;;6.82;1.73;;;22.50;44.70;;;;;;5033299;28;20086;-74
2022/06/14 10:12:37;;;;;;;4.13;1.27;;;23.00;44.20;;;;;;5045712;28;20528;-74
2022/06/14 10:15:27;;;;;;;6.20;1.60;;;23.50;43.50;;;;;;5037715;28;20040;-74
2022/06/14 10:18:08;;;;;;;4.57;1.20;;;23.80;43.10;;;;;;5035083;28;20096;-74
2022/06/14 10:21:19;;;;;;;5.93;1.60;;;24.10;42.70;;;;;;5049291;28;20143;-74
2022/06/14 10:24:24;;;;;;;25.23;4.80;;;24.40;42.50;;;;;;5023916;28;20113;-73
2022/06/14 10:29:53;;;;;;;5.00;1.65;;;24.80;41.60;;;;;;5034902;28;20120;-73
2022/06/14 10:32:57;;;;;;;3.22;1.10;;;25.00;41.30;;;;;;5018998;28;20096;-73
2022/06/14 10:35:53;;;;;;;5.72;1.42;;;25.30;41.00;;;;;;5008149;28;20029;-73
2022/06/14 10:38:50;;;;;;;5.90;1.42;;;25.50;40.80;;;;;;5034153;28;20354;-74
2022/06/14 10:41:19;;;;;;;5.43;1.58;;;25.60;40.60;;;;;;5013681;28;20115;-74
2022/06/14 10:44:04;;;;;;;5.57;1.48;;;25.70;40.60;;;;;;5033934;28;20025;-73
2022/06/14 10:46:39;;;;;;;5.28;1.55;;;25.70;40.00;;;;;;5019214;28;20369;-73
2022/06/14 10:49:23;;;;;;;4.97;1.27;;;25.80;39.80;;;;;;5016281;28;20053;-73
2022/06/14 10:52:07;;;;;;;4.88;1.60;;;25.90;39.80;;;;;;4998271;28;20069;-74
2022/06/14 10:54:40;;;;;;;3.80;1.15;;;25.90;39.70;;;;;;5023744;28;20030;-73
2022/06/14 10:57:06;;;;;;;5.85;1.08;;;25.80;39.40;;;;;;5025427;28;20044;-73
2022/06/14 10:59:43;;;;;;;4.38;1.45;;;25.80;39.80;;;;;;5037158;28;20036;-74
2022/06/14 11:02:44;;;;;;;5.47;1.13;;;25.90;39.20;;;;;;5052948;28;20045;-73
2022/06/14 11:05:41;;;;;;;4.88;1.17;;;25.60;39.20;;;;;;5029374;28;20026;-73
2022/06/14 11:08:35;;;;;;;4.35;1.15;;;25.10;39.10;;;;;;5053520;28;20028;-73
2022/06/14 11:11:29;;;;;;;4.78;1.15;;;24.60;40.00;;;;;;5050111;28;20076;-73
2022/06/14 11:14:21;;;;;;;4.95;1.23;;;24.10;40.60;;;;;;5035313;28;20037;-72
2022/06/14 11:17:06;;;;;;;2.60;1.05;;;23.90;41.00;;;;;;5035484;28;20124;-73
2022/06/14 11:19:53;;;;;;;3.70;1.17;;;23.70;41.20;;;;;;5028525;28;20037;-74
2022/06/14 11:22:22;;;;;;;3.08;1.20;;;23.60;41.40;;;;;;5049645;28;20473;-73
2022/06/14 11:25:12;;;;;;;4.22;1.30;;;23.40;41.90;;;;;;5018965;28;20366;-73
2022/06/14 11:28:02;;;;;;;5.88;1.52;;;23.30;42.40;;;;;;5042035;28;20049;-74
2022/06/14 11:30:40;;;;;;;5.57;1.35;;;23.20;42.20;;;;;;5035224;28;20067;-74
2022/06/14 11:33:30;;;;;;;4.43;1.40;;;23.20;42.50;;;;;;5035039;28;20037;-73
2022/06/14 11:36:05;;;;;;;5.40;1.70;;;23.10;42.50;;;;;;5040162;28;20021;-73
2022/06/14 11:38:56;;;;;;;14.30;2.83;;;22.90;42.70;;;;;;5037149;28;20021;-73
2022/06/14 11:41:24;;;;;;;6.25;1.55;;;22.70;42.90;;;;;;5036253;28;20419;-74
2022/06/14 11:44:16;;;;;;;5.32;1.70;;;22.50;43.30;;;;;;5041200;28;20026;-74
2022/06/14 11:46:58;;;;;;;3.60;1.27;;;22.60;43.20;;;;;;5046152;28;20025;-74
2022/06/14 11:49:37;;;;;;;4.25;1.38;;;22.90;43.00;;;;;;5050826;28;20048;-71
2022/06/14 11:52:43;;;;;;;6.45;1.55;;;23.20;42.20;;;;;;5043875;28;20389;-74
2022/06/14 11:55:32;;;;;;;6.10;1.52;;;23.60;42.20;;;;;;5037029;28;20102;-75
2022/06/14 11:58:35;;;;;;;4.65;1.50;;;24.00;41.90;;;;;;5037135;28;20075;-74
2022/06/14 12:01:14;;;;;;;3.17;1.15;;;24.30;41.20;;;;;;5041295;28;20068;-74
2022/06/14 12:03:57;;;;;;;5.60;1.48;;;24.50;41.10;;;;;;5020056;28;20467;-75
2022/06/14 12:06:53;;;;;;;4.25;1.30;;;24.50;41.00;;;;;;5036181;28;20454;-75
2022/06/14 12:09:42;;;;;;;4.15;1.30;;;24.30;41.40;;;;;;5035289;28;20026;-74
2022/06/14 12:12:22;;;;;;;4.13;1.27;;;24.00;41.90;;;;;;5032095;28;20465;-73
2022/06/14 12:14:56;;;;;;;4.53;1.50;;;23.80;41.90;;;;;;5040360;28;20056;-74
2022/06/14 12:17:43;;;;;;;6.22;1.70;;;23.80;42.40;;;;;;5038969;28;20103;-74
2022/06/14 12:20:21;;;;;;;4.05;1.02;;;23.80;42.30;;;;;;5036298;28;20108;-74
2022/06/14 12:22:52;;;;;;;3.72;1.20;;;23.80;42.10;;;;;;5035301;28;20033;-73
2022/06/14 12:28:36;;;;;;;5.28;1.50;;;23.80;42.20;;;;;;5035927;28;20112;-73
2022/06/14 12:31:16;;;;;;;3.20;1.20;;;23.80;42.30;;;;;;5018910;28;20036;-73
2022/06/14 12:34:13;;;;;;;6.22;1.52;;;23.80;42.30;;;;;;5043874;28;20037;-74
2022/06/14 12:37:18;;;;;;;7.15;1.48;;;23.90;42.40;;;;;;5044760;28;20060;-74
2022/06/14 12:40:27;;;;;;;5.88;1.80;;;23.80;42.30;;;;;;5021804;28;20446;-74
2022/06/14 12:43:07;;;;;;;4.60;1.00;;;23.90;42.30;;;;;;4991348;28;20037;-75
2022/06/14 12:45:36;;;;;;;4.53;1.40;;;23.70;42.40;;;;;;5047607;28;20082;-74
2022/06/14 12:48:20;;;;;;;6.07;1.40;;;23.70;42.50;;;;;;5054958;28;20108;-75
2022/06/14 12:50:53;;;;;;;3.38;1.45;;;23.60;42.20;;;;;;5050660;28;20041;-75
2022/06/14 12:53:54;;;;;;;4.03;1.30;;;23.50;42.30;;;;;;5037480;28;20387;-75
2022/06/14 12:56:38;;;;;;;8.05;1.65;;;23.40;42.60;;;;;;5030323;28;20455;-74
2022/06/14 12:59:31;;;;;;;4.43;1.30;;;23.30;42.90;;;;;;5047337;28;20051;-75
2022/06/14 13:02:13;;;;;;;3.65;1.27;;;23.30;43.20;;;;;;5061034;28;20132;-74
2022/06/14 13:05:02;;;;;;;5.28;1.52;;;23.30;43.00;;;;;;5027113;28;20105;-74
2022/06/14 13:07:47;;;;;;;6.47;1.30;;;23.20;42.90;;;;;;5039215;28;20045;-74
2022/06/14 13:10:34;;;;;;;5.15;1.55;;;23.20;43.20;;;;;;5038970;28;20109;-73
2022/06/14 13:13:11;;;;;;;3.92;1.20;;;23.20;43.50;;;;;;5024145;28;20051;-73
2022/06/14 13:15:46;;;;;;;6.68;1.63;;;23.20;43.70;;;;;;5023903;28;20086;-73
2022/06/14 13:18:30;;;;;;;5.97;1.67;;;23.20;43.50;;;;;;5042353;28;20091;-73
2022/06/14 13:21:00;;;;;;;3.67;1.27;;;23.20;43.50;;;;;;5039349;28;20068;-73
2022/06/14 13:23:51;;;;;;;4.68;1.20;;;23.10;43.50;;;;;;5044344;28;20021;-73
2022/06/14 13:26:44;;;;;;;4.50;1.38;;;23.10;43.50;;;;;;5045406;28;20025;-73
2022/06/14 13:29:22;;;;;;;5.07;1.73;;;23.00;43.60;;;;;;5041653;28;20044;-73
2022/06/14 13:32:17;;;;;;;4.03;1.70;;;23.00;43.60;;;;;;5048648;28;20033;-73
2022/06/14 13:35:07;;;;;;;5.45;1.48;;;22.90;43.70;;;;;;5032912;28;20454;-73
2022/06/14 13:37:48;;;;;;;6.10;1.67;;;22.90;43.70;;;;;;5038109;28;20328;-73
2022/06/14 13:40:42;;;;;;;6.50;1.40;;;22.80;44.00;;;;;;5044537;28;20030;-73
2022/06/14 13:43:33;;;;;;;3.78;1.25;;;22.80;44.10;;;;;;5037403;28;20030;-73
2022/06/14 13:46:31;;;;;;;;;;;22.80;44.00;;;;;;5032799;28;20446;-73
2022/06/14 13:49:15;;;;;;;3.95;1.10;;;22.80;44.10;;;;;;5012834;28;20389;-73
2022/06/14 13:51:59;;;;;;;3.38;1.50;;;22.70;44.00;;;;;;5006637;28;20058;-73
2022/06/14 13:54:37;;;;;;;5.38;1.65;;;22.70;44.10;;;;;;5004515;28;20030;-72
2022/06/14 13:57:14;;;;;;;4.30;1.40;;;22.70;44.10;;;;;;5005055;28;20042;-73
2022/06/14 13:59:44;;;;;;;3.33;1.13;;;22.60;44.30;;;;;;5015569;28;20041;-73
2022/06/14 14:02:51;;;;;;;3.50;1.35;;;22.70;44.40;;;;;;5016453;28;20029;-73
2022/06/14 14:05:40;;;;;;;5.13;1.70;;;22.70;44.40;;;;;;4919965;29;20078;-73
2022/06/14 14:08:29;;;;;;;8.63;1.77;;;22.70;44.40;;;;;;4931746;29;20024;-73
2022/06/14 14:11:31;;;;;;;3.97;1.52;;;22.70;44.10;;;;;;4914968;29;20052;-75
2022/06/14 14:14:21;;;;;;;3.95;1.50;;;22.70;44.10;;;;;;4935787;29;20048;-73